createdAt,value
2023-02-04T00:00:00.000Z,1.33
2023-02-04T00:15:00.000Z,1.58
2023-02-04T00:30:00.000Z,1.67
2023-02-04T00:45:00.000Z,1.22
2023-02-04T01:00:00.000Z,1.47
2023-02-04T01:15:00.000Z,1.21
2023-02-04T01:30:00.000Z,1.42
2023-02-04T01:45:00.000Z,1.36
2023-02-04T02:00:00.000Z,1.35
2023-02-04T02:15:00.000Z,3.04
2023-02-04T02:30:00.000Z,4.31
2023-02-04T02:45:00.000Z,5.54
2023-02-04T03:00:00.000Z,4.95
2023-02-04T03:15:00.000Z,4.89
2023-02-04T03:30:00.000Z,4.15
2023-02-04T03:45:00.000Z,4.11
2023-02-04T04:00:00.000Z,4.04
2023-02-04T04:15:00.000Z,4.75
2023-02-04T04:30:00.000Z,5.15
2023-02-04T04:45:00.000Z,5.42
2023-02-04T05:00:00.000Z,6.27
2023-02-04T05:15:00.000Z,6.24
2023-02-04T05:30:00.000Z,6.53
2023-02-04T05:45:00.000Z,6.08
2023-02-04T06:00:00.000Z,6.65
2023-02-04T06:15:00.000Z,5.51
2023-02-04T06:30:00.000Z,4.86
2023-02-04T06:45:00.000Z,5.95
2023-02-04T07:00:00.000Z,6.06
2023-02-04T07:15:00.000Z,6.81
2023-02-04T07:30:00.000Z,10.56
2023-02-04T07:45:00.000Z,9.33
2023-02-04T08:00:00.000Z,7.19
2023-02-04T08:15:00.000Z,8.66
2023-02-04T08:30:00.000Z,5.33
2023-02-04T08:45:00.000Z,3.34
2023-02-04T09:00:00.000Z,4.22
2023-02-04T09:15:00.000Z,3.39
2023-02-04T09:30:00.000Z,4.29
2023-02-04T09:45:00.000Z,5.55
2023-02-04T10:00:00.000Z,4.62
2023-02-04T10:15:00.000Z,8.21
2023-02-04T10:30:00.000Z,10.78
2023-02-04T10:45:00.000Z,7.62
2023-02-04T11:00:00.000Z,7.18
2023-02-04T11:15:00.000Z,5.24
2023-02-04T11:30:00.000Z,4.27
2023-02-04T11:45:00.000Z,4.13
2023-02-04T12:00:00.000Z,4.58
2023-02-04T12:15:00.000Z,5.72
2023-02-04T12:30:00.000Z,4.98
2023-02-04T12:45:00.000Z,5.41
2023-02-04T13:00:00.000Z,8.94
2023-02-04T13:15:00.000Z,8.93
2023-02-04T13:30:00.000Z,8.49
2023-02-04T13:45:00.000Z,8.32
2023-02-04T14:00:00.000Z,8.18
2023-02-04T14:15:00.000Z,7.84
2023-02-04T14:30:00.000Z,10.12
2023-02-04T14:45:00.000Z,9.73
2023-02-04T15:00:00.000Z,9.18
2023-02-04T15:15:00.000Z,10.28
2023-02-04T15:30:00.000Z,9.86
2023-02-04T15:45:00.000Z,12.29
2023-02-04T16:00:00.000Z,15.24
2023-02-04T16:15:00.000Z,11.22
2023-02-04T16:30:00.000Z,12.39
2023-02-04T16:45:00.000Z,14.71
2023-02-04T17:00:00.000Z,14.01
2023-02-04T17:15:00.000Z,12.14
2023-02-04T17:30:00.000Z,12.69
2023-02-04T17:45:00.000Z,12.85
2023-02-04T18:00:00.000Z,12.61
2023-02-04T18:15:00.000Z,15.38
2023-02-04T18:30:00.000Z,13.71
2023-02-04T18:45:00.000Z,12.08
2023-02-04T19:00:00.000Z,27.69
2023-02-04T19:15:00.000Z,14.33
2023-02-04T19:30:00.000Z,12.13
2023-02-04T19:45:00.000Z,16.28
2023-02-04T20:00:00.000Z,19.53
2023-02-04T20:15:00.000Z,18.65
2023-02-04T20:30:00.000Z,22.79
2023-02-04T20:45:00.000Z,24.44
2023-02-04T21:00:00.000Z,20.01
2023-02-04T21:15:00.000Z,18.15
2023-02-04T21:30:00.000Z,15.85
2023-02-04T21:45:00.000Z,16.13
2023-02-04T22:00:00.000Z,16.42
2023-02-04T22:15:00.000Z,15.8
2023-02-04T22:30:00.000Z,21.56
2023-02-04T22:45:00.000Z,19.95
2023-02-04T23:00:00.000Z,25.04
2023-02-04T23:15:00.000Z,18.72
2023-02-04T23:30:00.000Z,17.8
2023-02-04T23:45:00.000Z,15.52
